sensor_id;sensor_type;location;lat;lon;timestamp;temperature;humidity
47090;DHT22;32840;52.516;13.294;2023-04-25T00:02:16;12.10;99.90
47090;DHT22;32840;52.516;13.294;2023-04-25T00:05:03;12.00;99.90
47090;DHT22;32840;52.516;13.294;2023-04-25T00:07:49;12.10;99.90
47090;DHT22;32840;52.516;13.294;2023-04-25T00:10:36;12.10;99.90
47090;DHT22;32840;52.516;13.294;2023-04-25T00:13:21;12.10;99.90
47090;DHT22;32840;52.516;13.294;2023-04-25T00:16:06;12.00;99.90
47090;DHT22;32840;52.516;13.294;2023-04-25T00:18:51;11.90;99.90
47090;DHT22;32840;52.516;13.294;2023-04-25T00:21:38;12.00;99.90
47090;DHT22;32840;52.516;13.294;2023-04-25T00:24:24;12.00;99.90
47090;DHT22;32840;52.516;13.294;2023-04-25T00:27:09;11.90;99.90
47090;DHT22;32840;52.516;13.294;2023-04-25T00:29:54;11.90;99.90
47090;DHT22;32840;52.516;13.294;2023-04-25T00:32:40;11.90;99.90
47090;DHT22;32840;52.516;13.294;2023-04-25T00:35:24;11.90;99.90
47090;DHT22;32840;52.516;13.294;2023-04-25T00:38:10;12.00;99.90
47090;DHT22;32840;52.516;13.294;2023-04-25T00:40:54;12.10;99.90
47090;DHT22;32840;52.516;13.294;2023-04-25T00:43:40;12.10;99.90
47090;DHT22;32840;52.516;13.294;2023-04-25T00:46:26;12.10;99.90
47090;DHT22;32840;52.516;13.294;2023-04-25T00:49:11;12.20;99.90
47090;DHT22;32840;52.516;13.294;2023-04-25T00:52:00;12.20;99.90
47090;DHT22;32840;52.516;13.294;2023-04-25T00:54:45;12.10;99.90
47090;DHT22;32840;52.516;13.294;2023-04-25T00:57:30;12.10;99.90
47090;DHT22;32840;52.516;13.294;2023-04-25T01:00:15;12.10;99.90
47090;DHT22;32840;52.516;13.294;2023-04-25T01:06:41;12.20;99.90
47090;DHT22;32840;52.516;13.294;2023-04-25T01:09:26;12.20;99.90
47090;DHT22;32840;52.516;13.294;2023-04-25T01:12:11;12.20;99.90
47090;DHT22;32840;52.516;13.294;2023-04-25T01:14:57;12.20;99.90
47090;DHT22;32840;52.516;13.294;2023-04-25T01:17:41;12.10;99.90
47090;DHT22;32840;52.516;13.294;2023-04-25T01:20:27;12.10;99.90
47090;DHT22;32840;52.516;13.294;2023-04-25T01:23:13;12.00;99.90
47090;DHT22;32840;52.516;13.294;2023-04-25T01:25:58;12.10;99.90
47090;DHT22;32840;52.516;13.294;2023-04-25T01:28:44;12.10;99.90
47090;DHT22;32840;52.516;13.294;2023-04-25T01:31:32;12.00;99.90
47090;DHT22;32840;52.516;13.294;2023-04-25T01:34:17;12.10;99.90
47090;DHT22;32840;52.516;13.294;2023-04-25T01:37:02;12.00;99.90
47090;DHT22;32840;52.516;13.294;2023-04-25T01:39:47;12.00;99.90
47090;DHT22;32840;52.516;13.294;2023-04-25T01:42:36;12.10;99.90
47090;DHT22;32840;52.516;13.294;2023-04-25T01:45:22;12.20;99.90
47090;DHT22;32840;52.516;13.294;2023-04-25T01:48:11;12.20;99.90
47090;DHT22;32840;52.516;13.294;2023-04-25T01:50:56;12.10;99.90
47090;DHT22;32840;52.516;13.294;2023-04-25T01:53:42;12.10;99.90
47090;DHT22;32840;52.516;13.294;2023-04-25T01:56:32;12.00;99.90
47090;DHT22;32840;52.516;13.294;2023-04-25T01:59:18;12.00;99.90
47090;DHT22;32840;52.516;13.294;2023-04-25T02:02:04;12.10;99.90
47090;DHT22;32840;52.516;13.294;2023-04-25T02:04:48;12.20;99.90
47090;DHT22;32840;52.516;13.294;2023-04-25T02:07:33;12.10;99.90
47090;DHT22;32840;52.516;13.294;2023-04-25T02:10:18;12.10;99.90
47090;DHT22;32840;52.516;13.294;2023-04-25T02:13:03;12.10;99.90
47090;DHT22;32840;52.516;13.294;2023-04-25T02:15:49;12.00;99.90
47090;DHT22;32840;52.516;13.294;2023-04-25T02:18:35;11.90;99.90
47090;DHT22;32840;52.516;13.294;2023-04-25T02:21:22;11.90;99.90
47090;DHT22;32840;52.516;13.294;2023-04-25T02:24:07;11.90;99.90
47090;DHT22;32840;52.516;13.294;2023-04-25T02:26:52;11.90;99.90
47090;DHT22;32840;52.516;13.294;2023-04-25T02:29:37;12.00;99.90
47090;DHT22;32840;52.516;13.294;2023-04-25T02:32:22;11.90;99.90
47090;DHT22;32840;52.516;13.294;2023-04-25T02:35:07;12.00;99.90
47090;DHT22;32840;52.516;13.294;2023-04-25T02:37:53;12.00;99.90
47090;DHT22;32840;52.516;13.294;2023-04-25T02:40:40;12.00;99.90
47090;DHT22;32840;52.516;13.294;2023-04-25T02:43:25;11.80;99.90
47090;DHT22;32840;52.516;13.294;2023-04-25T02:46:10;11.90;99.90
47090;DHT22;32840;52.516;13.294;2023-04-25T02:48:55;11.90;99.90
47090;DHT22;32840;52.516;13.294;2023-04-25T02:51:40;12.00;99.90
47090;DHT22;32840;52.516;13.294;2023-04-25T02:54:25;12.00;99.90
47090;DHT22;32840;52.516;13.294;2023-04-25T02:57:10;11.90;99.90
47090;DHT22;32840;52.516;13.294;2023-04-25T02:59:55;11.90;99.90
47090;DHT22;32840;52.516;13.294;2023-04-25T03:02:40;11.80;99.90
47090;DHT22;32840;52.516;13.294;2023-04-25T03:05:24;11.80;99.90
47090;DHT22;32840;52.516;13.294;2023-04-25T03:08:09;11.60;99.90
47090;DHT22;32840;52.516;13.294;2023-04-25T03:10:54;11.70;99.90
47090;DHT22;32840;52.516;13.294;2023-04-25T03:13:43;11.70;99.90
47090;DHT22;32840;52.516;13.294;2023-04-25T03:16:32;11.80;99.90
47090;DHT22;32840;52.516;13.294;2023-04-25T03:19:20;11.70;99.90
47090;DHT22;32840;52.516;13.294;2023-04-25T03:22:05;11.70;99.90
47090;DHT22;32840;52.516;13.294;2023-04-25T03:24:50;11.80;99.90
47090;DHT22;32840;52.516;13.294;2023-04-25T03:27:37;11.80;99.90
47090;DHT22;32840;52.516;13.294;2023-04-25T03:30:22;11.80;99.90
47090;DHT22;32840;52.516;13.294;2023-04-25T03:33:07;11.70;99.90
47090;DHT22;32840;52.516;13.294;2023-04-25T03:35:52;11.70;99.90
47090;DHT22;32840;52.516;13.294;2023-04-25T03:38:37;11.80;99.90
47090;DHT22;32840;52.516;13.294;2023-04-25T03:41:22;11.70;99.90
47090;DHT22;32840;52.516;13.294;2023-04-25T03:44:07;11.70;99.90
47090;DHT22;32840;52.516;13.294;2023-04-25T03:46:52;11.70;99.90
47090;DHT22;32840;52.516;13.294;2023-04-25T03:49:37;11.70;99.90
47090;DHT22;32840;52.516;13.294;2023-04-25T03:52:25;11.70;99.90
47090;DHT22;32840;52.516;13.294;2023-04-25T03:55:10;11.80;99.90
47090;DHT22;32840;52.516;13.294;2023-04-25T03:57:54;11.80;99.90
47090;DHT22;32840;52.516;13.294;2023-04-25T04:00:39;11.70;99.90
47090;DHT22;32840;52.516;13.294;2023-04-25T04:03:24;11.70;99.90
47090;DHT22;32840;52.516;13.294;2023-04-25T04:06:09;11.70;99.90
47090;DHT22;32840;52.516;13.294;2023-04-25T04:09:00;11.70;99.90
47090;DHT22;32840;52.516;13.294;2023-04-25T04:11:46;11.60;99.90
47090;DHT22;32840;52.516;13.294;2023-04-25T04:14:31;11.70;99.90
47090;DHT22;32840;52.516;13.294;2023-04-25T04:17:16;11.60;99.90
47090;DHT22;32840;52.516;13.294;2023-04-25T04:20:01;11.60;99.90
47090;DHT22;32840;52.516;13.294;2023-04-25T04:22:48;11.50;99.90
47090;DHT22;32840;52.516;13.294;2023-04-25T04:25:33;11.60;99.90
47090;DHT22;32840;52.516;13.294;2023-04-25T04:28:20;11.60;99.90
47090;DHT22;32840;52.516;13.294;2023-04-25T04:31:06;11.70;99.90
47090;DHT22;32840;52.516;13.294;2023-04-25T04:33:53;11.70;99.90
47090;DHT22;32840;52.516;13.294;2023-04-25T04:36:38;11.70;99.90
47090;DHT22;32840;52.516;13.294;2023-04-25T04:39:24;11.70;99.90
47090;DHT22;32840;52.516;13.294;2023-04-25T04:42:10;11.60;99.90
47090;DHT22;32840;52.516;13.294;2023-04-25T04:44:56;11.50;99.90
47090;DHT22;32840;52.516;13.294;2023-04-25T04:47:41;11.40;99.90
47090;DHT22;32840;52.516;13.294;2023-04-25T04:50:25;11.40;99.90
47090;DHT22;32840;52.516;13.294;2023-04-25T04:53:11;11.40;99.90
47090;DHT22;32840;52.516;13.294;2023-04-25T04:55:56;11.30;99.90
47090;DHT22;32840;52.516;13.294;2023-04-25T04:58:41;11.30;99.90
47090;DHT22;32840;52.516;13.294;2023-04-25T05:01:28;11.30;99.90
47090;DHT22;32840;52.516;13.294;2023-04-25T05:04:14;11.30;99.90
47090;DHT22;32840;52.516;13.294;2023-04-25T05:06:59;11.30;99.90
47090;DHT22;32840;52.516;13.294;2023-04-25T05:09:44;11.30;99.90
47090;DHT22;32840;52.516;13.294;2023-04-25T05:12:29;11.30;99.90
47090;DHT22;32840;52.516;13.294;2023-04-25T05:15:14;11.40;99.90
47090;DHT22;32840;52.516;13.294;2023-04-25T05:17:59;11.50;99.90
47090;DHT22;32840;52.516;13.294;2023-04-25T05:20:44;11.50;99.90
47090;DHT22;32840;52.516;13.294;2023-04-25T05:23:30;11.60;99.90
47090;DHT22;32840;52.516;13.294;2023-04-25T05:26:15;11.50;99.90
47090;DHT22;32840;52.516;13.294;2023-04-25T05:29:01;11.60;99.90
47090;DHT22;32840;52.516;13.294;2023-04-25T05:31:46;11.50;99.90
47090;DHT22;32840;52.516;13.294;2023-04-25T05:34:32;11.60;99.90
47090;DHT22;32840;52.516;13.294;2023-04-25T05:37:17;11.70;99.90
47090;DHT22;32840;52.516;13.294;2023-04-25T05:40:03;11.70;99.90
47090;DHT22;32840;52.516;13.294;2023-04-25T05:42:51;11.80;99.90
47090;DHT22;32840;52.516;13.294;2023-04-25T05:45:36;11.60;99.90
47090;DHT22;32840;52.516;13.294;2023-04-25T05:48:21;11.60;99.90
47090;DHT22;32840;52.516;13.294;2023-04-25T05:51:05;11.60;99.90
47090;DHT22;32840;52.516;13.294;2023-04-25T05:53:50;11.40;99.90
47090;DHT22;32840;52.516;13.294;2023-04-25T05:56:35;11.50;99.90
47090;DHT22;32840;52.516;13.294;2023-04-25T05:59:21;11.50;99.90
47090;DHT22;32840;52.516;13.294;2023-04-25T06:02:06;11.50;99.90
47090;DHT22;32840;52.516;13.294;2023-04-25T06:04:51;11.50;99.90
47090;DHT22;32840;52.516;13.294;2023-04-25T06:07:36;11.50;99.90
47090;DHT22;32840;52.516;13.294;2023-04-25T06:10:22;11.50;99.90
47090;DHT22;32840;52.516;13.294;2023-04-25T06:13:07;11.60;99.90
47090;DHT22;32840;52.516;13.294;2023-04-25T06:15:53;11.60;99.90
47090;DHT22;32840;52.516;13.294;2023-04-25T06:18:38;11.60;99.90
47090;DHT22;32840;52.516;13.294;2023-04-25T06:21:24;11.60;99.90
47090;DHT22;32840;52.516;13.294;2023-04-25T06:24:10;11.60;99.90
47090;DHT22;32840;52.516;13.294;2023-04-25T06:26:55;11.60;99.90
47090;DHT22;32840;52.516;13.294;2023-04-25T06:29:40;11.70;99.90
47090;DHT22;32840;52.516;13.294;2023-04-25T06:32:25;11.70;99.90
47090;DHT22;32840;52.516;13.294;2023-04-25T06:35:12;11.80;99.90
47090;DHT22;32840;52.516;13.294;2023-04-25T06:37:57;11.90;99.90
47090;DHT22;32840;52.516;13.294;2023-04-25T06:40:46;11.90;99.90
47090;DHT22;32840;52.516;13.294;2023-04-25T06:43:30;11.90;99.90
47090;DHT22;32840;52.516;13.294;2023-04-25T06:46:26;11.80;99.90
47090;DHT22;32840;52.516;13.294;2023-04-25T06:49:11;11.80;99.90
47090;DHT22;32840;52.516;13.294;2023-04-25T06:51:56;11.80;99.90
47090;DHT22;32840;52.516;13.294;2023-04-25T06:54:41;11.80;99.90
47090;DHT22;32840;52.516;13.294;2023-04-25T06:57:26;11.80;99.90
47090;DHT22;32840;52.516;13.294;2023-04-25T07:00:14;11.90;99.90
47090;DHT22;32840;52.516;13.294;2023-04-25T07:02:59;11.80;99.90
47090;DHT22;32840;52.516;13.294;2023-04-25T07:05:44;11.90;99.90
47090;DHT22;32840;52.516;13.294;2023-04-25T07:08:32;11.80;99.90
47090;DHT22;32840;52.516;13.294;2023-04-25T07:11:16;11.80;99.90
47090;DHT22;32840;52.516;13.294;2023-04-25T07:14:02;11.70;99.90
47090;DHT22;32840;52.516;13.294;2023-04-25T07:16:46;11.60;99.90
47090;DHT22;32840;52.516;13.294;2023-04-25T07:19:32;11.60;99.90
47090;DHT22;32840;52.516;13.294;2023-04-25T07:22:18;11.70;99.90
47090;DHT22;32840;52.516;13.294;2023-04-25T07:25:04;11.70;99.90
47090;DHT22;32840;52.516;13.294;2023-04-25T07:27:49;11.80;99.90
47090;DHT22;32840;52.516;13.294;2023-04-25T07:30:35;11.90;99.90
47090;DHT22;32840;52.516;13.294;2023-04-25T07:33:19;11.70;99.90
47090;DHT22;32840;52.516;13.294;2023-04-25T07:36:07;11.60;99.90
47090;DHT22;32840;52.516;13.294;2023-04-25T07:38:51;11.40;99.90
47090;DHT22;32840;52.516;13.294;2023-04-25T07:41:37;11.50;99.90
47090;DHT22;32840;52.516;13.294;2023-04-25T07:44:21;11.40;99.90
47090;DHT22;32840;52.516;13.294;2023-04-25T07:47:07;11.10;99.90
47090;DHT22;32840;52.516;13.294;2023-04-25T07:49:53;11.10;99.90
47090;DHT22;32840;52.516;13.294;2023-04-25T07:52:38;11.40;99.90
47090;DHT22;32840;52.516;13.294;2023-04-25T07:55:23;11.50;99.90
47090;DHT22;32840;52.516;13.294;2023-04-25T07:58:09;11.70;99.90
47090;DHT22;32840;52.516;13.294;2023-04-25T08:00:54;11.90;99.90
47090;DHT22;32840;52.516;13.294;2023-04-25T08:03:40;12.00;99.90
47090;DHT22;32840;52.516;13.294;2023-04-25T08:06:25;12.10;99.90
47090;DHT22;32840;52.516;13.294;2023-04-25T08:09:10;12.00;99.90
47090;DHT22;32840;52.516;13.294;2023-04-25T08:11:58;12.20;99.90
47090;DHT22;32840;52.516;13.294;2023-04-25T08:14:43;12.40;99.90
47090;DHT22;32840;52.516;13.294;2023-04-25T08:17:27;12.50;99.90
47090;DHT22;32840;52.516;13.294;2023-04-25T08:20:12;12.30;99.90
47090;DHT22;32840;52.516;13.294;2023-04-25T08:22:57;12.50;99.90
47090;DHT22;32840;52.516;13.294;2023-04-25T08:25:42;12.60;99.90
47090;DHT22;32840;52.516;13.294;2023-04-25T08:28:27;12.50;99.90
47090;DHT22;32840;52.516;13.294;2023-04-25T08:31:12;12.60;98.50
47090;DHT22;32840;52.516;13.294;2023-04-25T08:33:56;12.60;95.70
47090;DHT22;32840;52.516;13.294;2023-04-25T08:36:41;12.40;95.40
47090;DHT22;32840;52.516;13.294;2023-04-25T08:39:26;12.20;95.60
47090;DHT22;32840;52.516;13.294;2023-04-25T08:42:12;12.20;95.50
47090;DHT22;32840;52.516;13.294;2023-04-25T08:44:58;12.60;93.50
47090;DHT22;32840;52.516;13.294;2023-04-25T08:47:45;12.90;91.00
47090;DHT22;32840;52.516;13.294;2023-04-25T08:50:30;12.80;87.60
47090;DHT22;32840;52.516;13.294;2023-04-25T08:53:20;12.80;90.00
47090;DHT22;32840;52.516;13.294;2023-04-25T08:56:07;12.90;87.10
47090;DHT22;32840;52.516;13.294;2023-04-25T08:58:55;12.80;82.30
47090;DHT22;32840;52.516;13.294;2023-04-25T09:01:40;12.60;81.90
47090;DHT22;32840;52.516;13.294;2023-04-25T09:04:32;12.80;83.00
47090;DHT22;32840;52.516;13.294;2023-04-25T09:07:19;13.50;83.20
47090;DHT22;32840;52.516;13.294;2023-04-25T09:10:07;14.30;78.40
47090;DHT22;32840;52.516;13.294;2023-04-25T09:13:12;14.80;75.20
47090;DHT22;32840;52.516;13.294;2023-04-25T09:15:58;15.10;71.00
47090;DHT22;32840;52.516;13.294;2023-04-25T09:18:43;15.00;70.10
47090;DHT22;32840;52.516;13.294;2023-04-25T09:21:31;14.40;70.30
47090;DHT22;32840;52.516;13.294;2023-04-25T09:24:39;14.00;70.20
47090;DHT22;32840;52.516;13.294;2023-04-25T09:27:30;14.30;70.50
47090;DHT22;32840;52.516;13.294;2023-04-25T09:30:16;14.30;71.80
47090;DHT22;32840;52.516;13.294;2023-04-25T09:33:05;14.80;70.90
47090;DHT22;32840;52.516;13.294;2023-04-25T09:35:51;15.40;67.30
47090;DHT22;32840;52.516;13.294;2023-04-25T09:38:47;14.90;63.50
47090;DHT22;32840;52.516;13.294;2023-04-25T09:41:32;14.60;64.60
47090;DHT22;32840;52.516;13.294;2023-04-25T09:44:24;14.30;64.30
47090;DHT22;32840;52.516;13.294;2023-04-25T09:47:10;13.90;63.10
47090;DHT22;32840;52.516;13.294;2023-04-25T09:49:57;13.40;65.10
47090;DHT22;32840;52.516;13.294;2023-04-25T09:52:43;13.20;65.50
47090;DHT22;32840;52.516;13.294;2023-04-25T09:59:10;13.00;65.90
47090;DHT22;32840;52.516;13.294;2023-04-25T10:01:56;13.10;66.40
47090;DHT22;32840;52.516;13.294;2023-04-25T10:04:41;13.40;66.10
47090;DHT22;32840;52.516;13.294;2023-04-25T10:07:30;13.90;66.20
47090;DHT22;32840;52.516;13.294;2023-04-25T10:10:18;14.30;62.50
47090;DHT22;32840;52.516;13.294;2023-04-25T10:13:04;14.20;63.20
47090;DHT22;32840;52.516;13.294;2023-04-25T10:15:51;14.20;61.20
47090;DHT22;32840;52.516;13.294;2023-04-25T10:18:36;14.10;62.70
47090;DHT22;32840;52.516;13.294;2023-04-25T10:21:23;14.40;61.60
47090;DHT22;32840;52.516;13.294;2023-04-25T10:24:08;14.70;62.70
47090;DHT22;32840;52.516;13.294;2023-04-25T10:26:54;14.60;60.60
47090;DHT22;32840;52.516;13.294;2023-04-25T10:29:41;14.30;62.00
47090;DHT22;32840;52.516;13.294;2023-04-25T10:32:32;14.20;61.10
47090;DHT22;32840;52.516;13.294;2023-04-25T10:35:24;13.80;61.20
47090;DHT22;32840;52.516;13.294;2023-04-25T10:38:09;14.00;61.70
47090;DHT22;32840;52.516;13.294;2023-04-25T10:41:08;13.80;61.20
47090;DHT22;32840;52.516;13.294;2023-04-25T10:43:59;13.90;62.20
47090;DHT22;32840;52.516;13.294;2023-04-25T10:46:46;14.20;61.20
47090;DHT22;32840;52.516;13.294;2023-04-25T10:49:41;14.30;59.60
47090;DHT22;32840;52.516;13.294;2023-04-25T10:52:28;14.10;59.80
47090;DHT22;32840;52.516;13.294;2023-04-25T10:55:14;14.10;61.90
47090;DHT22;32840;52.516;13.294;2023-04-25T10:58:00;14.20;59.30
47090;DHT22;32840;52.516;13.294;2023-04-25T11:00:46;13.80;59.30
47090;DHT22;32840;52.516;13.294;2023-04-25T11:03:31;13.50;60.10
47090;DHT22;32840;52.516;13.294;2023-04-25T11:06:29;13.90;61.00
47090;DHT22;32840;52.516;13.294;2023-04-25T11:09:17;14.20;59.50
47090;DHT22;32840;52.516;13.294;2023-04-25T11:12:04;14.20;58.70
47090;DHT22;32840;52.516;13.294;2023-04-25T11:14:49;13.60;59.70
47090;DHT22;32840;52.516;13.294;2023-04-25T11:17:34;13.20;61.40
47090;DHT22;32840;52.516;13.294;2023-04-25T11:20:20;13.00;62.20
47090;DHT22;32840;52.516;13.294;2023-04-25T11:23:05;12.90;62.30
47090;DHT22;32840;52.516;13.294;2023-04-25T11:25:50;13.10;60.90
47090;DHT22;32840;52.516;13.294;2023-04-25T11:28:37;12.90;58.90
47090;DHT22;32840;52.516;13.294;2023-04-25T11:31:25;12.70;58.50
47090;DHT22;32840;52.516;13.294;2023-04-25T11:34:10;13.10;59.70
47090;DHT22;32840;52.516;13.294;2023-04-25T11:36:54;13.30;58.30
47090;DHT22;32840;52.516;13.294;2023-04-25T11:39:45;13.50;58.00
47090;DHT22;32840;52.516;13.294;2023-04-25T11:42:33;13.70;56.70
47090;DHT22;32840;52.516;13.294;2023-04-25T11:45:25;13.80;56.40
47090;DHT22;32840;52.516;13.294;2023-04-25T11:48:10;13.60;56.20
47090;DHT22;32840;52.516;13.294;2023-04-25T11:50:55;13.40;56.50
47090;DHT22;32840;52.516;13.294;2023-04-25T11:53:51;13.40;57.20
47090;DHT22;32840;52.516;13.294;2023-04-25T11:56:40;13.50;57.90
47090;DHT22;32840;52.516;13.294;2023-04-25T11:59:25;13.70;57.60
47090;DHT22;32840;52.516;13.294;2023-04-25T12:02:24;13.80;58.10
47090;DHT22;32840;52.516;13.294;2023-04-25T12:05:15;14.00;56.90
47090;DHT22;32840;52.516;13.294;2023-04-25T12:08:14;13.80;57.60
47090;DHT22;32840;52.516;13.294;2023-04-25T12:10:59;13.80;58.30
47090;DHT22;32840;52.516;13.294;2023-04-25T12:13:51;13.70;56.90
47090;DHT22;32840;52.516;13.294;2023-04-25T12:16:45;13.70;56.40
47090;DHT22;32840;52.516;13.294;2023-04-25T12:19:34;13.90;55.40
47090;DHT22;32840;52.516;13.294;2023-04-25T12:22:21;13.70;54.90
47090;DHT22;32840;52.516;13.294;2023-04-25T12:25:07;13.40;55.90
47090;DHT22;32840;52.516;13.294;2023-04-25T12:27:52;13.70;55.20
47090;DHT22;32840;52.516;13.294;2023-04-25T12:31:06;13.50;54.20
47090;DHT22;32840;52.516;13.294;2023-04-25T12:33:50;13.40;55.70
47090;DHT22;32840;52.516;13.294;2023-04-25T12:36:37;13.40;55.70
47090;DHT22;32840;52.516;13.294;2023-04-25T12:39:24;13.20;55.80
47090;DHT22;32840;52.516;13.294;2023-04-25T12:42:10;13.10;56.50
47090;DHT22;32840;52.516;13.294;2023-04-25T12:44:59;13.40;57.50
47090;DHT22;32840;52.516;13.294;2023-04-25T12:47:45;13.70;56.80
47090;DHT22;32840;52.516;13.294;2023-04-25T12:50:34;13.60;56.30
47090;DHT22;32840;52.516;13.294;2023-04-25T12:53:21;13.30;56.50
47090;DHT22;32840;52.516;13.294;2023-04-25T12:56:09;13.30;56.80
47090;DHT22;32840;52.516;13.294;2023-04-25T12:58:54;13.20;56.90
47090;DHT22;32840;52.516;13.294;2023-04-25T13:01:40;13.40;57.70
47090;DHT22;32840;52.516;13.294;2023-04-25T13:04:25;13.80;57.70
47090;DHT22;32840;52.516;13.294;2023-04-25T13:07:10;14.20;57.80
47090;DHT22;32840;52.516;13.294;2023-04-25T13:09:55;14.30;57.00
47090;DHT22;32840;52.516;13.294;2023-04-25T13:12:41;14.30;57.30
47090;DHT22;32840;52.516;13.294;2023-04-25T13:15:27;14.00;56.30
47090;DHT22;32840;52.516;13.294;2023-04-25T13:18:11;13.60;55.00
47090;DHT22;32840;52.516;13.294;2023-04-25T13:20:58;13.50;55.80
47090;DHT22;32840;52.516;13.294;2023-04-25T13:23:44;13.60;56.30
47090;DHT22;32840;52.516;13.294;2023-04-25T13:26:31;13.70;57.50
47090;DHT22;32840;52.516;13.294;2023-04-25T13:29:20;14.10;56.70
47090;DHT22;32840;52.516;13.294;2023-04-25T13:32:05;14.10;56.40
47090;DHT22;32840;52.516;13.294;2023-04-25T13:34:51;14.20;56.10
47090;DHT22;32840;52.516;13.294;2023-04-25T13:37:36;14.20;57.40
47090;DHT22;32840;52.516;13.294;2023-04-25T13:40:24;14.20;56.70
47090;DHT22;32840;52.516;13.294;2023-04-25T13:43:11;14.30;56.90
47090;DHT22;32840;52.516;13.294;2023-04-25T13:45:57;14.30;56.40
47090;DHT22;32840;52.516;13.294;2023-04-25T13:48:43;14.40;56.20
47090;DHT22;32840;52.516;13.294;2023-04-25T13:51:30;14.10;56.00
47090;DHT22;32840;52.516;13.294;2023-04-25T13:54:15;14.10;57.10
47090;DHT22;32840;52.516;13.294;2023-04-25T13:57:03;14.20;58.20
47090;DHT22;32840;52.516;13.294;2023-04-25T13:59:50;14.30;59.50
47090;DHT22;32840;52.516;13.294;2023-04-25T14:02:38;14.30;57.50
47090;DHT22;32840;52.516;13.294;2023-04-25T14:05:23;14.00;56.80
47090;DHT22;32840;52.516;13.294;2023-04-25T14:08:09;13.60;57.90
47090;DHT22;32840;52.516;13.294;2023-04-25T14:10:54;13.40;58.10
47090;DHT22;32840;52.516;13.294;2023-04-25T14:13:39;13.30;58.00
47090;DHT22;32840;52.516;13.294;2023-04-25T14:16:25;13.30;59.40
47090;DHT22;32840;52.516;13.294;2023-04-25T14:19:10;13.50;58.70
47090;DHT22;32840;52.516;13.294;2023-04-25T14:21:55;13.60;58.70
47090;DHT22;32840;52.516;13.294;2023-04-25T14:24:40;13.70;57.50
47090;DHT22;32840;52.516;13.294;2023-04-25T14:27:26;13.70;57.50
47090;DHT22;32840;52.516;13.294;2023-04-25T14:30:12;13.70;57.90
47090;DHT22;32840;52.516;13.294;2023-04-25T14:32:57;13.80;57.70
47090;DHT22;32840;52.516;13.294;2023-04-25T14:35:45;13.90;58.30
47090;DHT22;32840;52.516;13.294;2023-04-25T14:38:30;14.00;58.50
47090;DHT22;32840;52.516;13.294;2023-04-25T14:41:15;13.90;57.70
47090;DHT22;32840;52.516;13.294;2023-04-25T14:44:00;13.90;58.70
47090;DHT22;32840;52.516;13.294;2023-04-25T14:46:48;13.90;59.60
47090;DHT22;32840;52.516;13.294;2023-04-25T14:49:39;13.80;57.80
47090;DHT22;32840;52.516;13.294;2023-04-25T14:52:24;13.70;60.60
47090;DHT22;32840;52.516;13.294;2023-04-25T14:55:10;13.80;58.80
47090;DHT22;32840;52.516;13.294;2023-04-25T14:58:01;13.70;59.70
47090;DHT22;32840;52.516;13.294;2023-04-25T15:00:46;13.50;59.50
47090;DHT22;32840;52.516;13.294;2023-04-25T15:03:31;13.40;59.10
47090;DHT22;32840;52.516;13.294;2023-04-25T15:06:17;13.10;61.10
47090;DHT22;32840;52.516;13.294;2023-04-25T15:09:02;13.20;60.40
47090;DHT22;32840;52.516;13.294;2023-04-25T15:11:47;13.30;60.70
47090;DHT22;32840;52.516;13.294;2023-04-25T15:14:33;13.20;61.80
47090;DHT22;32840;52.516;13.294;2023-04-25T15:17:19;13.40;61.70
47090;DHT22;32840;52.516;13.294;2023-04-25T15:20:06;13.60;59.70
47090;DHT22;32840;52.516;13.294;2023-04-25T15:22:51;13.60;60.20
47090;DHT22;32840;52.516;13.294;2023-04-25T15:25:36;13.40;59.30
47090;DHT22;32840;52.516;13.294;2023-04-25T15:28:22;13.50;59.90
47090;DHT22;32840;52.516;13.294;2023-04-25T15:31:07;13.60;59.90
47090;DHT22;32840;52.516;13.294;2023-04-25T15:33:52;13.40;58.90
47090;DHT22;32840;52.516;13.294;2023-04-25T15:36:37;13.20;59.40
47090;DHT22;32840;52.516;13.294;2023-04-25T15:39:22;13.10;60.60
47090;DHT22;32840;52.516;13.294;2023-04-25T15:42:07;13.10;61.40
47090;DHT22;32840;52.516;13.294;2023-04-25T15:44:52;13.10;59.50
47090;DHT22;32840;52.516;13.294;2023-04-25T15:47:38;13.10;59.80
47090;DHT22;32840;52.516;13.294;2023-04-25T15:50:23;13.00;60.20
47090;DHT22;32840;52.516;13.294;2023-04-25T15:53:09;12.90;60.30
47090;DHT22;32840;52.516;13.294;2023-04-25T15:55:54;12.90;61.30
47090;DHT22;32840;52.516;13.294;2023-04-25T15:58:39;12.80;62.20
47090;DHT22;32840;52.516;13.294;2023-04-25T16:01:24;13.10;62.30
47090;DHT22;32840;52.516;13.294;2023-04-25T16:04:14;13.20;62.90
47090;DHT22;32840;52.516;13.294;2023-04-25T16:07:02;13.10;60.20
47090;DHT22;32840;52.516;13.294;2023-04-25T16:09:47;13.10;62.10
47090;DHT22;32840;52.516;13.294;2023-04-25T16:12:31;13.10;61.20
47090;DHT22;32840;52.516;13.294;2023-04-25T16:15:17;13.10;60.10
47090;DHT22;32840;52.516;13.294;2023-04-25T16:18:02;13.10;62.10
47090;DHT22;32840;52.516;13.294;2023-04-25T16:20:47;13.10;59.70
47090;DHT22;32840;52.516;13.294;2023-04-25T16:23:33;13.10;59.40
47090;DHT22;32840;52.516;13.294;2023-04-25T16:26:18;13.10;59.00
47090;DHT22;32840;52.516;13.294;2023-04-25T16:29:03;12.90;57.20
47090;DHT22;32840;52.516;13.294;2023-04-25T16:31:48;12.90;58.30
47090;DHT22;32840;52.516;13.294;2023-04-25T16:34:33;13.00;59.80
47090;DHT22;32840;52.516;13.294;2023-04-25T16:37:18;13.00;58.90
47090;DHT22;32840;52.516;13.294;2023-04-25T16:40:03;12.90;57.70
47090;DHT22;32840;52.516;13.294;2023-04-25T16:42:48;12.80;58.60
47090;DHT22;32840;52.516;13.294;2023-04-25T16:45:33;12.80;59.50
47090;DHT22;32840;52.516;13.294;2023-04-25T16:48:18;12.80;58.10
47090;DHT22;32840;52.516;13.294;2023-04-25T16:51:04;12.80;59.10
47090;DHT22;32840;52.516;13.294;2023-04-25T16:53:48;12.80;58.60
47090;DHT22;32840;52.516;13.294;2023-04-25T16:56:35;12.90;60.10
47090;DHT22;32840;52.516;13.294;2023-04-25T16:59:20;12.90;58.60
47090;DHT22;32840;52.516;13.294;2023-04-25T17:02:20;12.80;58.30
47090;DHT22;32840;52.516;13.294;2023-04-25T17:05:05;12.80;61.00
47090;DHT22;32840;52.516;13.294;2023-04-25T17:07:52;12.80;58.90
47090;DHT22;32840;52.516;13.294;2023-04-25T17:10:37;12.60;59.10
47090;DHT22;32840;52.516;13.294;2023-04-25T17:13:22;12.50;61.10
47090;DHT22;32840;52.516;13.294;2023-04-25T17:16:09;12.50;60.00
47090;DHT22;32840;52.516;13.294;2023-04-25T17:18:59;12.40;59.50
47090;DHT22;32840;52.516;13.294;2023-04-25T17:21:44;12.30;60.00